sensor_id;sensor_type;location;lat;lon;timestamp;P1;durP1;ratioP1;P2;durP2;ratioP2
15820;SDS011;8011;51.650;7.240;2022-12-29T04:00:35;1.13;;;0.70;;
15820;SDS011;8011;51.650;7.240;2022-12-29T04:03:01;0.87;;;0.70;;
15820;SDS011;8011;51.650;7.240;2022-12-29T04:05:27;1.37;;;0.70;;
15820;SDS011;8011;51.650;7.240;2022-12-29T04:07:52;1.03;;;0.80;;
15820;SDS011;8011;51.650;7.240;2022-12-29T04:10:18;1.10;;;0.70;;
15820;SDS011;8011;51.650;7.240;2022-12-29T04:12:44;2.13;;;0.67;;
15820;SDS011;8011;51.650;7.240;2022-12-29T04:15:11;3.03;;;0.70;;
15820;SDS011;8011;51.650;7.240;2022-12-29T04:17:37;0.63;;;0.60;;
15820;SDS011;8011;51.650;7.240;2022-12-29T04:20:03;0.60;;;0.60;;
15820;SDS011;8011;51.650;7.240;2022-12-29T04:22:49;1.17;;;0.70;;
15820;SDS011;8011;51.650;7.240;2022-12-29T04:25:21;1.43;;;0.60;;
15820;SDS011;8011;51.650;7.240;2022-12-29T04:27:47;2.00;;;0.60;;
15820;SDS011;8011;51.650;7.240;2022-12-29T04:30:13;0.90;;;0.60;;
15820;SDS011;8011;51.650;7.240;2022-12-29T04:32:38;1.30;;;0.70;;
15820;SDS011;8011;51.650;7.240;2022-12-29T04:35:04;3.53;;;0.73;;
15820;SDS011;8011;51.650;7.240;2022-12-29T04:37:30;0.90;;;0.60;;
15820;SDS011;8011;51.650;7.240;2022-12-29T04:39:56;2.20;;;0.60;;
15820;SDS011;8011;51.650;7.240;2022-12-29T04:42:21;1.77;;;0.70;;
15820;SDS011;8011;51.650;7.240;2022-12-29T04:44:47;1.10;;;0.73;;
15820;SDS011;8011;51.650;7.240;2022-12-29T04:47:13;1.67;;;0.70;;
15820;SDS011;8011;51.650;7.240;2022-12-29T04:49:38;0.63;;;0.57;;
15820;SDS011;8011;51.650;7.240;2022-12-29T04:52:04;1.33;;;0.70;;
15820;SDS011;8011;51.650;7.240;2022-12-29T04:54:30;0.70;;;0.60;;
15820;SDS011;8011;51.650;7.240;2022-12-29T04:56:55;0.87;;;0.70;;
15820;SDS011;8011;51.650;7.240;2022-12-29T04:59:21;1.23;;;0.60;;
15820;SDS011;8011;51.650;7.240;2022-12-29T05:01:46;1.50;;;0.53;;
15820;SDS011;8011;51.650;7.240;2022-12-29T05:04:12;0.53;;;0.40;;
15820;SDS011;8011;51.650;7.240;2022-12-29T05:06:38;1.30;;;0.60;;
15820;SDS011;8011;51.650;7.240;2022-12-29T05:09:04;0.57;;;0.57;;
15820;SDS011;8011;51.650;7.240;2022-12-29T05:11:29;1.03;;;0.40;;
15820;SDS011;8011;51.650;7.240;2022-12-29T05:13:55;3.07;;;0.67;;
15820;SDS011;8011;51.650;7.240;2022-12-29T05:16:21;2.83;;;0.77;;
15820;SDS011;8011;51.650;7.240;2022-12-29T05:18:46;2.93;;;0.60;;
15820;SDS011;8011;51.650;7.240;2022-12-29T05:21:12;0.53;;;0.50;;
15820;SDS011;8011;51.650;7.240;2022-12-29T05:23:37;0.40;;;0.40;;
15820;SDS011;8011;51.650;7.240;2022-12-29T05:26:03;0.63;;;0.60;;
15820;SDS011;8011;51.650;7.240;2022-12-29T05:28:29;0.67;;;0.50;;
15820;SDS011;8011;51.650;7.240;2022-12-29T05:30:54;1.93;;;0.70;;
15820;SDS011;8011;51.650;7.240;2022-12-29T05:33:20;0.80;;;0.40;;
15820;SDS011;8011;51.650;7.240;2022-12-29T05:35:46;1.50;;;0.63;;
15820;SDS011;8011;51.650;7.240;2022-12-29T05:38:11;0.60;;;0.57;;
15820;SDS011;8011;51.650;7.240;2022-12-29T05:40:37;1.33;;;1.23;;
15820;SDS011;8011;51.650;7.240;2022-12-29T05:43:03;0.83;;;0.80;;
15820;SDS011;8011;51.650;7.240;2022-12-29T05:45:29;1.47;;;0.70;;
15820;SDS011;8011;51.650;7.240;2022-12-29T05:47:54;1.37;;;0.70;;
15820;SDS011;8011;51.650;7.240;2022-12-29T05:50:20;0.90;;;0.67;;
15820;SDS011;8011;51.650;7.240;2022-12-29T05:52:46;3.53;;;1.17;;
15820;SDS011;8011;51.650;7.240;2022-12-29T05:55:11;1.10;;;0.90;;
15820;SDS011;8011;51.650;7.240;2022-12-29T05:57:37;1.60;;;0.87;;
15820;SDS011;8011;51.650;7.240;2022-12-29T06:00:03;2.33;;;1.10;;
15820;SDS011;8011;51.650;7.240;2022-12-29T06:02:30;1.20;;;1.10;;
15820;SDS011;8011;51.650;7.240;2022-12-29T06:04:56;1.40;;;1.30;;
15820;SDS011;8011;51.650;7.240;2022-12-29T06:07:21;1.97;;;1.20;;
15820;SDS011;8011;51.650;7.240;2022-12-29T06:09:47;1.10;;;0.80;;
15820;SDS011;8011;51.650;7.240;2022-12-29T06:12:13;4.00;;;0.97;;
15820;SDS011;8011;51.650;7.240;2022-12-29T06:14:39;1.10;;;0.57;;
15820;SDS011;8011;51.650;7.240;2022-12-29T06:17:05;2.00;;;0.93;;
15820;SDS011;8011;51.650;7.240;2022-12-29T06:19:31;1.93;;;0.60;;
15820;SDS011;8011;51.650;7.240;2022-12-29T06:21:56;2.20;;;1.10;;
15820;SDS011;8011;51.650;7.240;2022-12-29T06:24:22;2.70;;;1.03;;
15820;SDS011;8011;51.650;7.240;2022-12-29T06:26:47;1.13;;;0.60;;
15820;SDS011;8011;51.650;7.240;2022-12-29T06:29:13;0.87;;;0.40;;
15820;SDS011;8011;51.650;7.240;2022-12-29T06:31:43;1.13;;;0.50;;
15820;SDS011;8011;51.650;7.240;2022-12-29T06:34:10;1.57;;;0.50;;
15820;SDS011;8011;51.650;7.240;2022-12-29T06:36:37;1.20;;;0.53;;
15820;SDS011;8011;51.650;7.240;2022-12-29T06:39:03;2.40;;;0.80;;
15820;SDS011;8011;51.650;7.240;2022-12-29T06:41:29;1.17;;;0.50;;
15820;SDS011;8011;51.650;7.240;2022-12-29T06:43:54;2.00;;;0.70;;
15820;SDS011;8011;51.650;7.240;2022-12-29T06:46:20;1.40;;;0.53;;
15820;SDS011;8011;51.650;7.240;2022-12-29T06:48:46;1.53;;;0.70;;
15820;SDS011;8011;51.650;7.240;2022-12-29T06:51:12;2.20;;;0.80;;
15820;SDS011;8011;51.650;7.240;2022-12-29T06:53:37;1.10;;;0.57;;
15820;SDS011;8011;51.650;7.240;2022-12-29T06:56:03;1.63;;;0.73;;
15820;SDS011;8011;51.650;7.240;2022-12-29T06:58:30;2.50;;;0.77;;
15820;SDS011;8011;51.650;7.240;2022-12-29T07:00:56;1.23;;;0.70;;
15820;SDS011;8011;51.650;7.240;2022-12-29T07:03:21;1.90;;;0.87;;
15820;SDS011;8011;51.650;7.240;2022-12-29T07:05:47;3.07;;;0.77;;
15820;SDS011;8011;51.650;7.240;2022-12-29T07:08:13;1.57;;;0.67;;
15820;SDS011;8011;51.650;7.240;2022-12-29T07:10:39;1.80;;;0.67;;
15820;SDS011;8011;51.650;7.240;2022-12-29T07:13:05;1.20;;;0.60;;
15820;SDS011;8011;51.650;7.240;2022-12-29T07:15:32;1.70;;;0.90;;
15820;SDS011;8011;51.650;7.240;2022-12-29T07:17:58;3.70;;;0.77;;
15820;SDS011;8011;51.650;7.240;2022-12-29T07:20:24;0.87;;;0.53;;
15820;SDS011;8011;51.650;7.240;2022-12-29T07:22:50;2.33;;;0.80;;
15820;SDS011;8011;51.650;7.240;2022-12-29T07:25:15;3.00;;;0.70;;
15820;SDS011;8011;51.650;7.240;2022-12-29T07:27:41;2.67;;;0.80;;
15820;SDS011;8011;51.650;7.240;2022-12-29T07:30:07;1.67;;;0.70;;
15820;SDS011;8011;51.650;7.240;2022-12-29T07:32:33;1.27;;;0.80;;
15820;SDS011;8011;51.650;7.240;2022-12-29T07:34:59;2.27;;;0.80;;
15820;SDS011;8011;51.650;7.240;2022-12-29T07:37:25;3.17;;;1.00;;
15820;SDS011;8011;51.650;7.240;2022-12-29T07:39:50;0.77;;;0.60;;
15820;SDS011;8011;51.650;7.240;2022-12-29T07:42:16;1.63;;;0.80;;
15820;SDS011;8011;51.650;7.240;2022-12-29T07:44:42;1.67;;;0.70;;
15820;SDS011;8011;51.650;7.240;2022-12-29T07:47:08;2.13;;;0.70;;
15820;SDS011;8011;51.650;7.240;2022-12-29T07:49:33;2.60;;;0.90;;
15820;SDS011;8011;51.650;7.240;2022-12-29T07:51:59;2.10;;;1.03;;
15820;SDS011;8011;51.650;7.240;2022-12-29T07:54:24;2.60;;;1.20;;
15820;SDS011;8011;51.650;7.240;2022-12-29T07:56:50;2.00;;;1.00;;
15820;SDS011;8011;51.650;7.240;2022-12-29T07:59:16;3.07;;;1.17;;
15820;SDS011;8011;51.650;7.240;2022-12-29T08:01:42;2.17;;;1.33;;
15820;SDS011;8011;51.650;7.240;2022-12-29T08:04:07;5.37;;;1.20;;
15820;SDS011;8011;51.650;7.240;2022-12-29T08:06:33;2.30;;;1.00;;
15820;SDS011;8011;51.650;7.240;2022-12-29T08:08:59;2.63;;;0.73;;
15820;SDS011;8011;51.650;7.240;2022-12-29T08:11:26;2.37;;;0.80;;
15820;SDS011;8011;51.650;7.240;2022-12-29T08:13:52;4.20;;;0.90;;
15820;SDS011;8011;51.650;7.240;2022-12-29T08:16:17;2.47;;;1.00;;
15820;SDS011;8011;51.650;7.240;2022-12-29T08:18:43;3.00;;;0.70;;
15820;SDS011;8011;51.650;7.240;2022-12-29T08:21:09;2.90;;;1.43;;
15820;SDS011;8011;51.650;7.240;2022-12-29T08:23:35;5.23;;;1.03;;
15820;SDS011;8011;51.650;7.240;2022-12-29T08:26:01;2.40;;;1.00;;
15820;SDS011;8011;51.650;7.240;2022-12-29T08:28:28;2.10;;;0.80;;
15820;SDS011;8011;51.650;7.240;2022-12-29T08:30:57;5.83;;;1.23;;
15820;SDS011;8011;51.650;7.240;2022-12-29T08:33:23;3.97;;;1.10;;
15820;SDS011;8011;51.650;7.240;2022-12-29T08:35:49;2.93;;;1.00;;
15820;SDS011;8011;51.650;7.240;2022-12-29T08:38:14;2.50;;;1.17;;
15820;SDS011;8011;51.650;7.240;2022-12-29T08:40:40;3.57;;;1.00;;
15820;SDS011;8011;51.650;7.240;2022-12-29T08:43:06;5.60;;;1.10;;
15820;SDS011;8011;51.650;7.240;2022-12-29T08:45:31;3.10;;;1.00;;
15820;SDS011;8011;51.650;7.240;2022-12-29T08:47:57;3.23;;;1.20;;
15820;SDS011;8011;51.650;7.240;2022-12-29T08:50:23;3.93;;;1.33;;
15820;SDS011;8011;51.650;7.240;2022-12-29T08:52:48;4.63;;;1.10;;
15820;SDS011;8011;51.650;7.240;2022-12-29T08:55:14;5.13;;;1.00;;
15820;SDS011;8011;51.650;7.240;2022-12-29T08:57:40;6.20;;;1.20;;
15820;SDS011;8011;51.650;7.240;2022-12-29T09:00:06;3.53;;;0.97;;
15820;SDS011;8011;51.650;7.240;2022-12-29T09:02:32;5.03;;;1.10;;
15820;SDS011;8011;51.650;7.240;2022-12-29T09:04:58;3.07;;;1.30;;
15820;SDS011;8011;51.650;7.240;2022-12-29T09:07:26;4.57;;;1.10;;
15820;SDS011;8011;51.650;7.240;2022-12-29T09:09:51;3.40;;;1.37;;
15820;SDS011;8011;51.650;7.240;2022-12-29T09:12:20;5.10;;;1.90;;
15820;SDS011;8011;51.650;7.240;2022-12-29T09:14:46;6.63;;;1.67;;
15820;SDS011;8011;51.650;7.240;2022-12-29T09:17:11;4.00;;;1.30;;
15820;SDS011;8011;51.650;7.240;2022-12-29T09:19:56;3.40;;;1.30;;
15820;SDS011;8011;51.650;7.240;2022-12-29T09:22:22;6.70;;;1.90;;
15820;SDS011;8011;51.650;7.240;2022-12-29T09:24:47;7.17;;;2.20;;
15820;SDS011;8011;51.650;7.240;2022-12-29T09:27:13;5.07;;;1.93;;
15820;SDS011;8011;51.650;7.240;2022-12-29T09:29:39;5.63;;;1.80;;
15820;SDS011;8011;51.650;7.240;2022-12-29T09:32:04;4.43;;;1.60;;
15820;SDS011;8011;51.650;7.240;2022-12-29T09:34:30;2.70;;;1.27;;
15820;SDS011;8011;51.650;7.240;2022-12-29T09:36:55;8.57;;;1.63;;
15820;SDS011;8011;51.650;7.240;2022-12-29T09:39:22;7.30;;;1.20;;
15820;SDS011;8011;51.650;7.240;2022-12-29T09:47:41;4.87;;;1.40;;
15820;SDS011;8011;51.650;7.240;2022-12-29T09:53:09;6.20;;;1.37;;
15820;SDS011;8011;51.650;7.240;2022-12-29T09:55:53;4.70;;;1.70;;
15820;SDS011;8011;51.650;7.240;2022-12-29T09:58:36;6.37;;;1.43;;
15820;SDS011;8011;51.650;7.240;2022-12-29T10:03:37;4.50;;;1.40;;
15820;SDS011;8011;51.650;7.240;2022-12-29T10:06:15;2.80;;;1.17;;
15820;SDS011;8011;51.650;7.240;2022-12-29T10:09:08;4.30;;;1.83;;
15820;SDS011;8011;51.650;7.240;2022-12-29T10:14:48;4.13;;;1.00;;
15820;SDS011;8011;51.650;7.240;2022-12-29T10:20:31;6.13;;;1.60;;
15820;SDS011;8011;51.650;7.240;2022-12-29T10:23:23;5.20;;;2.10;;
15820;SDS011;8011;51.650;7.240;2022-12-29T10:26:39;4.67;;;1.20;;
15820;SDS011;8011;51.650;7.240;2022-12-29T10:29:11;4.83;;;1.73;;
15820;SDS011;8011;51.650;7.240;2022-12-29T10:31:50;5.13;;;0.93;;
15820;SDS011;8011;51.650;7.240;2022-12-29T10:34:31;5.67;;;1.23;;
15820;SDS011;8011;51.650;7.240;2022-12-29T10:37:12;4.83;;;1.10;;
15820;SDS011;8011;51.650;7.240;2022-12-29T10:39:53;4.23;;;1.30;;
15820;SDS011;8011;51.650;7.240;2022-12-29T10:42:27;2.07;;;1.43;;
15820;SDS011;8011;51.650;7.240;2022-12-29T10:44:58;3.97;;;1.33;;
15820;SDS011;8011;51.650;7.240;2022-12-29T10:47:26;4.40;;;0.90;;
15820;SDS011;8011;51.650;7.240;2022-12-29T10:49:57;5.17;;;1.27;;
15820;SDS011;8011;51.650;7.240;2022-12-29T10:52:25;5.70;;;0.93;;
15820;SDS011;8011;51.650;7.240;2022-12-29T10:55:03;4.43;;;1.17;;
15820;SDS011;8011;51.650;7.240;2022-12-29T10:57:41;4.77;;;1.97;;
15820;SDS011;8011;51.650;7.240;2022-12-29T11:00:13;2.37;;;1.13;;
15820;SDS011;8011;51.650;7.240;2022-12-29T11:02:50;4.57;;;0.80;;
15820;SDS011;8011;51.650;7.240;2022-12-29T11:08:04;7.70;;;3.00;;
15820;SDS011;8011;51.650;7.240;2022-12-29T11:10:36;12.93;;;7.20;;
15820;SDS011;8011;51.650;7.240;2022-12-29T11:15:40;3.63;;;1.30;;
15820;SDS011;8011;51.650;7.240;2022-12-29T11:21:02;11.47;;;3.53;;
15820;SDS011;8011;51.650;7.240;2022-12-29T11:26:11;4.93;;;1.50;;
15820;SDS011;8011;51.650;7.240;2022-12-29T11:29:04;4.13;;;1.97;;
15820;SDS011;8011;51.650;7.240;2022-12-29T11:31:46;6.57;;;1.80;;
15820;SDS011;8011;51.650;7.240;2022-12-29T11:34:24;3.50;;;1.30;;
15820;SDS011;8011;51.650;7.240;2022-12-29T11:37:00;4.40;;;1.30;;
15820;SDS011;8011;51.650;7.240;2022-12-29T11:41:59;9.57;;;2.13;;
15820;SDS011;8011;51.650;7.240;2022-12-29T11:44:27;7.03;;;1.37;;
15820;SDS011;8011;51.650;7.240;2022-12-29T11:47:00;6.47;;;2.00;;
15820;SDS011;8011;51.650;7.240;2022-12-29T11:49:25;4.97;;;1.40;;
15820;SDS011;8011;51.650;7.240;2022-12-29T11:51:52;5.27;;;1.40;;
15820;SDS011;8011;51.650;7.240;2022-12-29T11:57:22;4.70;;;1.70;;
15820;SDS011;8011;51.650;7.240;2022-12-29T12:05:13;3.63;;;1.10;;
15820;SDS011;8011;51.650;7.240;2022-12-29T12:07:49;6.33;;;1.63;;
15820;SDS011;8011;51.650;7.240;2022-12-29T12:10:58;2.83;;;1.17;;
15820;SDS011;8011;51.650;7.240;2022-12-29T12:16:15;5.73;;;2.30;;
15820;SDS011;8011;51.650;7.240;2022-12-29T12:29:39;6.10;;;2.13;;
15820;SDS011;8011;51.650;7.240;2022-12-29T12:32:52;5.10;;;1.27;;
15820;SDS011;8011;51.650;7.240;2022-12-29T12:35:57;6.87;;;2.00;;
15820;SDS011;8011;51.650;7.240;2022-12-29T12:38:30;6.47;;;1.57;;
15820;SDS011;8011;51.650;7.240;2022-12-29T12:43:49;6.77;;;1.80;;
15820;SDS011;8011;51.650;7.240;2022-12-29T12:49:33;4.90;;;1.80;;
15820;SDS011;8011;51.650;7.240;2022-12-29T12:52:27;4.83;;;1.50;;
15820;SDS011;8011;51.650;7.240;2022-12-29T12:57:54;6.53;;;1.77;;
15820;SDS011;8011;51.650;7.240;2022-12-29T13:00:50;4.60;;;1.47;;
15820;SDS011;8011;51.650;7.240;2022-12-29T13:09:00;4.00;;;2.00;;
15820;SDS011;8011;51.650;7.240;2022-12-29T13:14:37;6.40;;;1.97;;
15820;SDS011;8011;51.650;7.240;2022-12-29T13:17:12;7.50;;;1.70;;
15820;SDS011;8011;51.650;7.240;2022-12-29T13:19:49;7.63;;;1.83;;
15820;SDS011;8011;51.650;7.240;2022-12-29T13:30:32;6.83;;;2.27;;
15820;SDS011;8011;51.650;7.240;2022-12-29T13:35:56;6.77;;;1.90;;
15820;SDS011;8011;51.650;7.240;2022-12-29T13:38:40;4.40;;;1.70;;
15820;SDS011;8011;51.650;7.240;2022-12-29T13:41:45;5.63;;;1.43;;
15820;SDS011;8011;51.650;7.240;2022-12-29T13:44:10;4.80;;;1.57;;
15820;SDS011;8011;51.650;7.240;2022-12-29T13:46:43;7.17;;;1.60;;
15820;SDS011;8011;51.650;7.240;2022-12-29T13:51:56;5.70;;;2.57;;
15820;SDS011;8011;51.650;7.240;2022-12-29T13:58:03;8.23;;;2.50;;
15820;SDS011;8011;51.650;7.240;2022-12-29T13:59:57;4.63;;;1.00;;
15820;SDS011;8011;51.650;7.240;2022-12-29T14:03:09;3.97;;;1.30;;
15820;SDS011;8011;51.650;7.240;2022-12-29T14:07:46;8.83;;;2.03;;
15820;SDS011;8011;51.650;7.240;2022-12-29T14:13:21;5.40;;;1.53;;
15820;SDS011;8011;51.650;7.240;2022-12-29T14:15:51;5.57;;;1.60;;
15820;SDS011;8011;51.650;7.240;2022-12-29T14:18:20;4.03;;;1.40;;
15820;SDS011;8011;51.650;7.240;2022-12-29T14:20:52;4.23;;;1.30;;
15820;SDS011;8011;51.650;7.240;2022-12-29T14:23:27;4.80;;;1.30;;
15820;SDS011;8011;51.650;7.240;2022-12-29T14:28:31;6.13;;;1.10;;
15820;SDS011;8011;51.650;7.240;2022-12-29T14:31:02;3.57;;;1.10;;
15820;SDS011;8011;51.650;7.240;2022-12-29T14:33:30;5.37;;;2.87;;
15820;SDS011;8011;51.650;7.240;2022-12-29T14:36:18;7.23;;;2.17;;
15820;SDS011;8011;51.650;7.240;2022-12-29T14:38:49;3.77;;;1.30;;
15820;SDS011;8011;51.650;7.240;2022-12-29T14:41:35;3.80;;;1.33;;
15820;SDS011;8011;51.650;7.240;2022-12-29T14:46:45;5.53;;;2.30;;
15820;SDS011;8011;51.650;7.240;2022-12-29T14:49:21;5.03;;;1.10;;
15820;SDS011;8011;51.650;7.240;2022-12-29T14:51:50;4.10;;;1.27;;
15820;SDS011;8011;51.650;7.240;2022-12-29T14:54:40;6.80;;;1.57;;
15820;SDS011;8011;51.650;7.240;2022-12-29T14:57:41;7.47;;;2.23;;
15820;SDS011;8011;51.650;7.240;2022-12-29T15:02:38;10.23;;;4.00;;
15820;SDS011;8011;51.650;7.240;2022-12-29T15:05:22;5.10;;;2.57;;
15820;SDS011;8011;51.650;7.240;2022-12-29T15:08:10;6.37;;;2.20;;
15820;SDS011;8011;51.650;7.240;2022-12-29T15:10:42;9.17;;;3.20;;
15820;SDS011;8011;51.650;7.240;2022-12-29T15:13:15;6.73;;;1.97;;
15820;SDS011;8011;51.650;7.240;2022-12-29T15:15:43;5.83;;;2.33;;
15820;SDS011;8011;51.650;7.240;2022-12-29T15:18:51;7.10;;;2.77;;
15820;SDS011;8011;51.650;7.240;2022-12-29T15:21:05;6.03;;;1.97;;
15820;SDS011;8011;51.650;7.240;2022-12-29T15:23:32;5.27;;;1.90;;
15820;SDS011;8011;51.650;7.240;2022-12-29T15:26:06;4.43;;;1.63;;
15820;SDS011;8011;51.650;7.240;2022-12-29T15:28:37;8.47;;;3.00;;
15820;SDS011;8011;51.650;7.240;2022-12-29T15:31:04;7.10;;;2.30;;
15820;SDS011;8011;51.650;7.240;2022-12-29T15:33:39;5.57;;;1.90;;
15820;SDS011;8011;51.650;7.240;2022-12-29T15:36:10;4.93;;;1.43;;
15820;SDS011;8011;51.650;7.240;2022-12-29T15:38:38;5.47;;;1.57;;
15820;SDS011;8011;51.650;7.240;2022-12-29T15:41:26;3.73;;;1.33;;
15820;SDS011;8011;51.650;7.240;2022-12-29T15:43:58;4.80;;;1.20;;
15820;SDS011;8011;51.650;7.240;2022-12-29T15:46:38;5.53;;;1.50;;
15820;SDS011;8011;51.650;7.240;2022-12-29T15:49:05;5.50;;;1.70;;
15820;SDS011;8011;51.650;7.240;2022-12-29T15:51:38;4.13;;;1.50;;
15820;SDS011;8011;51.650;7.240;2022-12-29T15:54:05;6.57;;;1.90;;
15820;SDS011;8011;51.650;7.240;2022-12-29T15:56:39;3.50;;;1.43;;
15820;SDS011;8011;51.650;7.240;2022-12-29T15:59:18;4.00;;;1.80;;
15820;SDS011;8011;51.650;7.240;2022-12-29T16:01:52;3.93;;;1.40;;
15820;SDS011;8011;51.650;7.240;2022-12-29T16:04:20;8.50;;;1.47;;
15820;SDS011;8011;51.650;7.240;2022-12-29T16:06:59;4.57;;;1.50;;
15820;SDS011;8011;51.650;7.240;2022-12-29T16:09:41;4.33;;;1.60;;
15820;SDS011;8011;51.650;7.240;2022-12-29T16:12:20;6.77;;;2.20;;
15820;SDS011;8011;51.650;7.240;2022-12-29T16:14:56;6.67;;;1.63;;
15820;SDS011;8011;51.650;7.240;2022-12-29T16:17:25;5.33;;;2.07;;
15820;SDS011;8011;51.650;7.240;2022-12-29T16:19:55;3.67;;;1.33;;
15820;SDS011;8011;51.650;7.240;2022-12-29T16:22:28;5.73;;;1.67;;
15820;SDS011;8011;51.650;7.240;2022-12-29T16:25:11;4.30;;;1.60;;
15820;SDS011;8011;51.650;7.240;2022-12-29T16:27:43;6.37;;;2.57;;
15820;SDS011;8011;51.650;7.240;2022-12-29T16:30:22;6.30;;;2.30;;
15820;SDS011;8011;51.650;7.240;2022-12-29T16:32:57;7.87;;;2.30;;
15820;SDS011;8011;51.650;7.240;2022-12-29T16:35:25;7.07;;;1.90;;
15820;SDS011;8011;51.650;7.240;2022-12-29T16:43:22;3.37;;;1.20;;
15820;SDS011;8011;51.650;7.240;2022-12-29T16:50:43;4.77;;;2.47;;
15820;SDS011;8011;51.650;7.240;2022-12-29T16:53:26;8.43;;;1.77;;
15820;SDS011;8011;51.650;7.240;2022-12-29T16:55:55;5.70;;;2.00;;
15820;SDS011;8011;51.650;7.240;2022-12-29T16:58:27;5.13;;;1.27;;
15820;SDS011;8011;51.650;7.240;2022-12-29T17:00:56;4.93;;;1.17;;
15820;SDS011;8011;51.650;7.240;2022-12-29T17:03:26;5.27;;;1.50;;
15820;SDS011;8011;51.650;7.240;2022-12-29T17:06:00;6.37;;;2.03;;
15820;SDS011;8011;51.650;7.240;2022-12-29T17:08:25;5.30;;;2.17;;
15820;SDS011;8011;51.650;7.240;2022-12-29T17:10:52;7.73;;;2.03;;
15820;SDS011;8011;51.650;7.240;2022-12-29T17:13:40;5.10;;;1.80;;
15820;SDS011;8011;51.650;7.240;2022-12-29T17:16:06;6.07;;;2.00;;
15820;SDS011;8011;51.650;7.240;2022-12-29T17:18:35;6.47;;;2.60;;
15820;SDS011;8011;51.650;7.240;2022-12-29T17:21:01;11.90;;;4.80;;
15820;SDS011;8011;51.650;7.240;2022-12-29T17:23:27;20.93;;;8.67;;
15820;SDS011;8011;51.650;7.240;2022-12-29T17:25:54;12.40;;;7.10;;
15820;SDS011;8011;51.650;7.240;2022-12-29T17:30:57;2.97;;;2.10;;
15820;SDS011;8011;51.650;7.240;2022-12-29T17:33:25;4.13;;;2.00;;
15820;SDS011;8011;51.650;7.240;2022-12-29T17:35:52;3.33;;;1.23;;
15820;SDS011;8011;51.650;7.240;2022-12-29T17:38:28;4.07;;;1.10;;
15820;SDS011;8011;51.650;7.240;2022-12-29T17:41:03;2.07;;;1.17;;
15820;SDS011;8011;51.650;7.240;2022-12-29T17:43:36;1.20;;;0.57;;
15820;SDS011;8011;51.650;7.240;2022-12-29T17:46:04;1.20;;;0.57;;
15820;SDS011;8011;51.650;7.240;2022-12-29T17:48:30;1.47;;;0.97;;
15820;SDS011;8011;51.650;7.240;2022-12-29T17:50:56;2.97;;;1.27;;
15820;SDS011;8011;51.650;7.240;2022-12-29T17:53:24;3.20;;;1.20;;
15820;SDS011;8011;51.650;7.240;2022-12-29T17:55:52;3.87;;;1.53;;
15820;SDS011;8011;51.650;7.240;2022-12-29T17:58:22;4.00;;;2.50;;
15820;SDS011;8011;51.650;7.240;2022-12-29T18:00:54;7.73;;;3.40;;
15820;SDS011;8011;51.650;7.240;2022-12-29T18:03:34;3.70;;;2.70;;
15820;SDS011;8011;51.650;7.240;2022-12-29T18:06:02;6.53;;;3.67;;
15820;SDS011;8011;51.650;7.240;2022-12-29T18:08:30;7.63;;;4.37;;
15820;SDS011;8011;51.650;7.240;2022-12-29T18:10:58;5.13;;;3.60;;
15820;SDS011;8011;51.650;7.240;2022-12-29T18:13:25;4.33;;;1.60;;
15820;SDS011;8011;51.650;7.240;2022-12-29T18:15:55;2.53;;;1.70;;
15820;SDS011;8011;51.650;7.240;2022-12-29T18:18:22;4.20;;;2.20;;
15820;SDS011;8011;51.650;7.240;2022-12-29T18:20:49;4.10;;;2.13;;
15820;SDS011;8011;51.650;7.240;2022-12-29T18:23:21;3.57;;;2.23;;
15820;SDS011;8011;51.650;7.240;2022-12-29T18:28:43;5.03;;;2.20;;
15820;SDS011;8011;51.650;7.240;2022-12-29T18:33:43;5.60;;;2.93;;
15820;SDS011;8011;51.650;7.240;2022-12-29T18:36:10;3.90;;;1.70;;
15820;SDS011;8011;51.650;7.240;2022-12-29T18:38:36;5.83;;;2.93;;
15820;SDS011;8011;51.650;7.240;2022-12-29T18:41:02;2.70;;;1.60;;
15820;SDS011;8011;51.650;7.240;2022-12-29T18:43:28;3.70;;;1.80;;
15820;SDS011;8011;51.650;7.240;2022-12-29T18:49:04;7.50;;;4.03;;
15820;SDS011;8011;51.650;7.240;2022-12-29T18:51:30;4.57;;;2.47;;
15820;SDS011;8011;51.650;7.240;2022-12-29T18:53:55;2.83;;;1.60;;
15820;SDS011;8011;51.650;7.240;2022-12-29T18:56:21;6.00;;;2.20;;
15820;SDS011;8011;51.650;7.240;2022-12-29T18:58:48;3.93;;;1.83;;
15820;SDS011;8011;51.650;7.240;2022-12-29T19:01:18;5.50;;;2.63;;
15820;SDS011;8011;51.650;7.240;2022-12-29T19:03:46;5.93;;;2.10;;
15820;SDS011;8011;51.650;7.240;2022-12-29T19:06:12;4.43;;;1.87;;
15820;SDS011;8011;51.650;7.240;2022-12-29T19:08:38;3.93;;;2.07;;
15820;SDS011;8011;51.650;7.240;2022-12-29T19:11:03;9.20;;;2.50;;
15820;SDS011;8011;51.650;7.240;2022-12-29T19:13:29;5.57;;;2.30;;
15820;SDS011;8011;51.650;7.240;2022-12-29T19:15:55;6.00;;;2.60;;
15820;SDS011;8011;51.650;7.240;2022-12-29T19:18:23;4.57;;;2.00;;
15820;SDS011;8011;51.650;7.240;2022-12-29T19:20:51;9.93;;;4.17;;
15820;SDS011;8011;51.650;7.240;2022-12-29T19:23:19;8.27;;;3.27;;
15820;SDS011;8011;51.650;7.240;2022-12-29T19:25:46;7.53;;;2.43;;
15820;SDS011;8011;51.650;7.240;2022-12-29T19:28:20;6.63;;;2.40;;
15820;SDS011;8011;51.650;7.240;2022-12-29T19:30:51;6.33;;;2.20;;
15820;SDS011;8011;51.650;7.240;2022-12-29T19:33:19;8.17;;;2.20;;
15820;SDS011;8011;51.650;7.240;2022-12-29T19:35:45;5.70;;;2.40;;
15820;SDS011;8011;51.650;7.240;2022-12-29T19:38:12;6.37;;;2.03;;
15820;SDS011;8011;51.650;7.240;2022-12-29T19:40:42;7.33;;;2.57;;
15820;SDS011;8011;51.650;7.240;2022-12-29T19:43:10;7.03;;;2.30;;
15820;SDS011;8011;51.650;7.240;2022-12-29T19:45:37;9.47;;;2.47;;
15820;SDS011;8011;51.650;7.240;2022-12-29T19:48:08;12.53;;;3.13;;
15820;SDS011;8011;51.650;7.240;2022-12-29T19:50:38;5.40;;;2.20;;
15820;SDS011;8011;51.650;7.240;2022-12-29T19:53:03;15.03;;;3.80;;
15820;SDS011;8011;51.650;7.240;2022-12-29T19:55:29;12.47;;;2.97;;
15820;SDS011;8011;51.650;7.240;2022-12-29T19:57:55;13.67;;;3.20;;
15820;SDS011;8011;51.650;7.240;2022-12-29T20:00:20;8.57;;;2.50;;
15820;SDS011;8011;51.650;7.240;2022-12-29T20:02:46;10.67;;;2.73;;
15820;SDS011;8011;51.650;7.240;2022-12-29T20:05:12;11.60;;;2.70;;
15820;SDS011;8011;51.650;7.240;2022-12-29T20:07:40;11.83;;;3.37;;
15820;SDS011;8011;51.650;7.240;2022-12-29T20:10:06;8.03;;;2.80;;
15820;SDS011;8011;51.650;7.240;2022-12-29T20:12:33;8.10;;;2.87;;
15820;SDS011;8011;51.650;7.240;2022-12-29T20:15:00;9.93;;;2.93;;
15820;SDS011;8011;51.650;7.240;2022-12-29T20:17:26;12.03;;;3.27;;
15820;SDS011;8011;51.650;7.240;2022-12-29T20:19:52;8.03;;;2.57;;
15820;SDS011;8011;51.650;7.240;2022-12-29T20:22:17;11.93;;;4.03;;
15820;SDS011;8011;51.650;7.240;2022-12-29T20:24:43;12.93;;;3.20;;
15820;SDS011;8011;51.650;7.240;2022-12-29T20:27:10;11.00;;;2.50;;
15820;SDS011;8011;51.650;7.240;2022-12-29T20:29:37;13.73;;;2.47;;
15820;SDS011;8011;51.650;7.240;2022-12-29T20:32:12;9.40;;;2.33;;
15820;SDS011;8011;51.650;7.240;2022-12-29T20:34:39;8.33;;;2.70;;
15820;SDS011;8011;51.650;7.240;2022-12-29T20:37:05;9.63;;;2.30;;
15820;SDS011;8011;51.650;7.240;2022-12-29T20:39:32;8.30;;;2.63;;
15820;SDS011;8011;51.650;7.240;2022-12-29T20:41:58;10.50;;;2.30;;
15820;SDS011;8011;51.650;7.240;2022-12-29T20:44:23;12.90;;;2.40;;
15820;SDS011;8011;51.650;7.240;2022-12-29T20:46:50;8.50;;;2.20;;
15820;SDS011;8011;51.650;7.240;2022-12-29T20:49:16;7.77;;;2.30;;
15820;SDS011;8011;51.650;7.240;2022-12-29T20:51:41;10.13;;;2.87;;
15820;SDS011;8011;51.650;7.240;2022-12-29T20:54:09;12.40;;;2.80;;
15820;SDS011;8011;51.650;7.240;2022-12-29T20:56:36;6.87;;;2.17;;
15820;SDS011;8011;51.650;7.240;2022-12-29T20:59:01;10.20;;;2.80;;
15820;SDS011;8011;51.650;7.240;2022-12-29T21:01:27;9.30;;;2.50;;
15820;SDS011;8011;51.650;7.240;2022-12-29T21:03:53;5.90;;;2.40;;
15820;SDS011;8011;51.650;7.240;2022-12-29T21:06:19;15.10;;;3.00;;
15820;SDS011;8011;51.650;7.240;2022-12-29T21:08:47;6.53;;;2.33;;
15820;SDS011;8011;51.650;7.240;2022-12-29T21:11:14;11.07;;;3.10;;
15820;SDS011;8011;51.650;7.240;2022-12-29T21:13:40;7.83;;;1.90;;
15820;SDS011;8011;51.650;7.240;2022-12-29T21:16:07;11.17;;;2.60;;
15820;SDS011;8011;51.650;7.240;2022-12-29T21:18:35;9.03;;;2.20;;